createdAt,value
2017-06-22T00:01:51.117Z,83.80
2017-06-22T00:04:18.149Z,83.80
2017-06-22T00:06:44.625Z,83.60
2017-06-22T00:09:11.167Z,83.50
2017-06-22T00:11:37.589Z,83.30
2017-06-22T00:14:04.041Z,83.40
2017-06-22T00:16:30.857Z,83.60
2017-06-22T00:18:57.288Z,83.90
2017-06-22T00:21:23.711Z,84.50
2017-06-22T00:23:50.155Z,84.70
2017-06-22T00:26:16.716Z,84.80
2017-06-22T00:28:43.452Z,85.40
2017-06-22T00:31:10.014Z,85.60
2017-06-22T00:33:36.443Z,85.50
2017-06-22T00:36:02.853Z,85.90
2017-06-22T00:38:29.368Z,86.00
2017-06-22T00:40:55.781Z,85.60
2017-06-22T00:43:22.177Z,85.50
2017-06-22T00:45:48.652Z,85.70
2017-06-22T00:48:15.500Z,85.60
2017-06-22T00:50:42.296Z,85.70
2017-06-22T00:53:09.626Z,86.00
2017-06-22T00:55:36.073Z,85.80
2017-06-22T00:58:02.529Z,86.30
2017-06-22T01:00:28.921Z,86.30
2017-06-22T01:02:55.341Z,86.30
2017-06-22T01:05:22.035Z,86.50
2017-06-22T01:07:48.817Z,86.40
2017-06-22T01:10:15.256Z,86.40
2017-06-22T01:12:41.696Z,86.20
2017-06-22T01:15:08.164Z,86.30
2017-06-22T01:17:34.719Z,86.00
2017-06-22T01:20:02.043Z,85.40
2017-06-22T01:22:28.455Z,85.30
2017-06-22T01:24:54.996Z,85.20
2017-06-22T01:27:21.589Z,85.10
2017-06-22T01:29:48.893Z,85.40
2017-06-22T01:32:15.400Z,85.30
2017-06-22T01:34:42.224Z,85.30
2017-06-22T01:37:08.748Z,85.30
2017-06-22T01:39:35.908Z,85.60
2017-06-22T01:42:02.347Z,85.60
2017-06-22T01:44:28.952Z,85.90
2017-06-22T01:46:55.477Z,85.60
2017-06-22T01:49:21.885Z,85.60
2017-06-22T01:51:48.373Z,85.80
2017-06-22T01:54:14.822Z,85.70
2017-06-22T01:56:41.305Z,85.70
2017-06-22T01:59:07.752Z,86.00
2017-06-22T02:01:34.416Z,86.00
2017-06-22T02:04:00.868Z,85.80
2017-06-22T02:06:27.559Z,85.70
2017-06-22T02:08:54.715Z,86.50
2017-06-22T02:11:21.980Z,86.30
2017-06-22T02:13:48.472Z,86.20
2017-06-22T02:16:14.908Z,86.10
2017-06-22T02:18:41.317Z,86.00
2017-06-22T02:21:08.212Z,86.00
2017-06-22T02:23:34.979Z,85.90
2017-06-22T02:26:01.498Z,85.80
2017-06-22T02:28:28.728Z,86.70
2017-06-22T02:30:55.210Z,85.80
2017-06-22T02:33:21.621Z,85.80
2017-06-22T02:35:48.868Z,85.80
2017-06-22T02:38:15.317Z,85.80
2017-06-22T02:40:42.358Z,85.80
2017-06-22T02:43:09.117Z,85.10
2017-06-22T02:45:35.789Z,85.10
2017-06-22T02:48:02.430Z,85.30
2017-06-22T02:50:28.973Z,85.30
2017-06-22T02:52:55.444Z,85.20
2017-06-22T02:55:22.581Z,85.50
2017-06-22T02:57:51.421Z,85.60
2017-06-22T03:00:18.673Z,85.80
2017-06-22T03:02:45.142Z,85.80
2017-06-22T03:05:11.601Z,85.80
2017-06-22T03:07:51.178Z,85.90
2017-06-22T03:10:18.538Z,86.80
2017-06-22T03:12:45.041Z,85.80
2017-06-22T03:15:11.500Z,85.70
2017-06-22T03:17:38.173Z,85.90
2017-06-22T03:20:04.553Z,85.70
2017-06-22T03:22:30.969Z,85.70
2017-06-22T03:24:58.670Z,85.80
2017-06-22T03:27:25.945Z,85.80
2017-06-22T03:29:52.352Z,85.80
2017-06-22T03:32:18.987Z,86.00
2017-06-22T03:34:45.461Z,86.30
2017-06-22T03:37:12.274Z,86.50
2017-06-22T03:39:38.865Z,86.20
2017-06-22T03:42:05.417Z,86.20
2017-06-22T03:44:31.929Z,85.80
2017-06-22T03:46:58.574Z,85.70
2017-06-22T03:49:25.061Z,85.80
2017-06-22T03:51:52.332Z,85.70
2017-06-22T03:54:18.889Z,86.10
2017-06-22T03:56:47.113Z,86.00
2017-06-22T03:59:13.801Z,86.00
2017-06-22T04:01:40.960Z,85.90
2017-06-22T04:04:07.767Z,85.80
2017-06-22T04:06:35.129Z,86.30
2017-06-22T04:09:01.741Z,86.30
2017-06-22T04:11:28.208Z,86.40
2017-06-22T04:13:54.850Z,86.30
2017-06-22T04:16:22.060Z,86.50
2017-06-22T04:18:48.465Z,86.30
2017-06-22T04:21:14.946Z,85.90
2017-06-22T04:23:41.399Z,85.90
2017-06-22T04:26:08.928Z,85.70
2017-06-22T04:28:35.493Z,85.60
2017-06-22T04:31:02.148Z,85.50
2017-06-22T04:33:28.608Z,85.10
2017-06-22T04:35:55.216Z,84.70
2017-06-22T04:38:21.772Z,83.60
2017-06-22T04:40:48.333Z,83.40
2017-06-22T04:43:15.054Z,84.00
2017-06-22T04:45:41.502Z,84.10
2017-06-22T04:48:07.982Z,84.70
2017-06-22T04:50:35.176Z,85.50
2017-06-22T04:53:01.582Z,85.50
2017-06-22T04:55:29.089Z,87.00
2017-06-22T04:57:56.552Z,85.60
2017-06-22T05:00:22.961Z,85.60
2017-06-22T05:02:49.584Z,85.20
2017-06-22T05:05:16.073Z,84.80
2017-06-22T05:07:42.758Z,85.00
2017-06-22T05:10:09.302Z,84.40
2017-06-22T05:12:35.804Z,83.80
2017-06-22T05:15:03.470Z,83.30
2017-06-22T05:17:30.044Z,83.20
2017-06-22T05:19:56.789Z,82.30
2017-06-22T05:22:23.221Z,82.90
2017-06-22T05:24:49.625Z,82.20
2017-06-22T05:27:16.513Z,82.70
2017-06-22T05:29:42.961Z,82.40
2017-06-22T05:32:09.701Z,82.60
2017-06-22T05:34:36.212Z,82.40
2017-06-22T05:37:03.012Z,82.30
2017-06-22T05:39:29.493Z,83.00
2017-06-22T05:41:57.384Z,81.80
2017-06-22T05:44:24.254Z,82.00
2017-06-22T05:46:50.694Z,82.40
2017-06-22T05:49:17.353Z,81.50
2017-06-22T05:51:43.938Z,81.30
2017-06-22T05:54:11.192Z,81.10
2017-06-22T05:56:37.893Z,81.00
2017-06-22T05:59:04.344Z,80.90
2017-06-22T06:01:30.797Z,79.90
2017-06-22T06:03:57.205Z,80.30
2017-06-22T06:06:23.617Z,80.60
2017-06-22T06:08:50.417Z,80.50
2017-06-22T06:11:17.016Z,80.50
2017-06-22T06:13:43.469Z,80.10
2017-06-22T06:16:10.207Z,79.60
2017-06-22T06:18:37.457Z,78.70
2017-06-22T06:21:03.940Z,78.60
2017-06-22T06:23:30.399Z,78.70
2017-06-22T06:25:56.797Z,78.80
2017-06-22T06:28:23.322Z,78.10
2017-06-22T06:30:50.576Z,77.50
2017-06-22T06:33:17.716Z,78.10
2017-06-22T06:35:46.201Z,76.50
2017-06-22T06:38:12.735Z,76.50
2017-06-22T06:40:40.072Z,76.90
2017-06-22T06:43:07.344Z,77.00
2017-06-22T06:45:33.883Z,76.90
2017-06-22T06:48:02.354Z,75.40
2017-06-22T06:50:29.636Z,75.30
2017-06-22T06:52:56.052Z,75.30
2017-06-22T06:55:23.557Z,74.60
2017-06-22T06:57:50.054Z,74.50
2017-06-22T07:00:16.530Z,73.70
2017-06-22T07:02:43.154Z,73.50
2017-06-22T07:05:09.822Z,73.80
2017-06-22T07:07:37.254Z,71.80
2017-06-22T07:10:03.916Z,71.60
2017-06-22T07:12:30.405Z,71.30
2017-06-22T07:14:57.057Z,71.70
2017-06-22T07:17:23.696Z,72.40
2017-06-22T07:19:50.267Z,71.30
2017-06-22T07:22:17.716Z,72.10
2017-06-22T07:24:44.976Z,72.00
2017-06-22T07:27:12.349Z,70.80
2017-06-22T07:29:39.069Z,69.30
2017-06-22T07:32:05.513Z,69.70
2017-06-22T07:34:32.712Z,68.90
2017-06-22T07:36:59.161Z,68.90
2017-06-22T07:39:25.565Z,67.50
2017-06-22T07:41:52.544Z,67.70
2017-06-22T07:44:20.213Z,68.00
2017-06-22T07:46:46.648Z,67.50
2017-06-22T07:49:13.396Z,66.00
2017-06-22T07:51:40.036Z,65.60
2017-06-22T07:54:07.954Z,66.30
2017-06-22T07:56:34.485Z,66.30
2017-06-22T07:59:01.024Z,67.40
2017-06-22T08:01:27.593Z,66.40
2017-06-22T08:03:54.048Z,65.60
2017-06-22T08:06:20.475Z,63.70
2017-06-22T08:08:47.010Z,62.30
2017-06-22T08:11:13.411Z,64.50
2017-06-22T08:13:46.377Z,64.70
2017-06-22T08:16:12.933Z,64.70
2017-06-22T08:18:39.481Z,62.30
2017-06-22T08:21:05.901Z,61.70
2017-06-22T08:23:32.541Z,62.00
2017-06-22T08:25:59.031Z,62.40
2017-06-22T08:28:25.477Z,62.40
2017-06-22T08:30:51.906Z,62.80
2017-06-22T08:33:18.313Z,61.90
2017-06-22T08:35:44.728Z,60.90
2017-06-22T08:38:11.172Z,62.70
2017-06-22T08:40:37.585Z,62.70
2017-06-22T08:43:04.017Z,60.00
2017-06-22T08:45:30.512Z,60.00
2017-06-22T08:47:56.934Z,59.20
2017-06-22T08:50:24.088Z,58.80
2017-06-22T08:52:50.552Z,58.70
2017-06-22T08:55:16.956Z,56.30
2017-06-22T08:57:43.375Z,58.00
2017-06-22T09:00:10.565Z,56.30
2017-06-22T09:02:36.964Z,56.30
2017-06-22T09:05:03.360Z,56.20
2017-06-22T09:07:29.806Z,54.10
2017-06-22T09:09:56.200Z,54.30
2017-06-22T09:12:22.648Z,55.90
2017-06-22T09:14:49.056Z,52.00
2017-06-22T09:17:15.469Z,52.00
2017-06-22T09:19:41.917Z,49.50
2017-06-22T09:22:08.320Z,50.20
2017-06-22T09:24:34.720Z,46.50
2017-06-22T09:27:01.180Z,46.50
2017-06-22T09:29:28.352Z,52.60
2017-06-22T09:31:54.752Z,51.80
2017-06-22T09:34:21.268Z,48.60
2017-06-22T09:36:47.673Z,47.70
2017-06-22T09:39:14.097Z,47.60
2017-06-22T09:41:40.637Z,45.90
2017-06-22T09:44:07.060Z,46.30
2017-06-22T09:46:33.505Z,44.40
2017-06-22T09:48:59.945Z,42.60
2017-06-22T09:51:26.348Z,43.30
2017-06-22T09:53:53.514Z,44.20
2017-06-22T09:56:19.965Z,44.00
2017-06-22T09:58:46.365Z,43.90
2017-06-22T10:01:12.777Z,43.40
2017-06-22T10:03:39.309Z,44.80
2017-06-22T10:06:05.758Z,43.20
2017-06-22T10:08:32.921Z,41.90
2017-06-22T10:10:59.421Z,41.80
2017-06-22T10:13:25.811Z,39.00
2017-06-22T10:15:52.223Z,40.60
2017-06-22T10:18:18.693Z,39.10
2017-06-22T10:20:45.109Z,41.40
2017-06-22T10:23:11.503Z,41.80
2017-06-22T10:25:37.949Z,42.30
2017-06-22T10:28:04.717Z,43.00
2017-06-22T10:30:31.252Z,41.60
2017-06-22T10:32:57.697Z,42.50
2017-06-22T10:35:24.104Z,42.90
2017-06-22T10:37:50.551Z,42.90
2017-06-22T10:40:16.992Z,41.10
2017-06-22T10:42:43.396Z,40.50
2017-06-22T10:45:09.796Z,38.90
2017-06-22T10:47:36.256Z,38.60
2017-06-22T10:50:02.674Z,38.50
2017-06-22T10:52:29.968Z,38.80
2017-06-22T10:54:56.452Z,38.70
2017-06-22T10:57:22.945Z,37.20
2017-06-22T10:59:50.157Z,37.60
2017-06-22T11:02:17.393Z,37.00
2017-06-22T11:04:44.557Z,35.60
2017-06-22T11:07:10.984Z,35.50
2017-06-22T11:09:38.173Z,33.90
2017-06-22T11:12:04.573Z,33.90
2017-06-22T11:14:31.020Z,34.40
2017-06-22T11:16:57.419Z,37.70
2017-06-22T11:19:23.840Z,36.00
2017-06-22T11:21:50.281Z,35.40
2017-06-22T11:24:16.701Z,33.40
2017-06-22T11:26:43.117Z,34.20
2017-06-22T11:29:10.554Z,36.70
2017-06-22T11:31:36.960Z,34.30
2017-06-22T11:34:04.085Z,33.30
2017-06-22T11:36:30.521Z,33.30
2017-06-22T11:38:58.516Z,35.50
2017-06-22T11:41:24.933Z,35.60
2017-06-22T11:43:51.400Z,35.10
2017-06-22T11:46:17.816Z,34.10
2017-06-22T11:48:44.417Z,33.30
2017-06-22T11:51:11.086Z,34.20
2017-06-22T11:53:37.566Z,33.30
2017-06-22T11:56:04.138Z,34.60
2017-06-22T11:58:30.588Z,33.80
2017-06-22T12:00:57.732Z,32.00
2017-06-22T12:03:24.880Z,34.40
2017-06-22T12:05:52.064Z,32.10
2017-06-22T12:08:19.428Z,32.00
2017-06-22T12:10:46.638Z,32.00
2017-06-22T12:13:13.817Z,31.30
2017-06-22T12:15:40.239Z,31.30
2017-06-22T12:18:07.172Z,32.10
2017-06-22T12:20:33.744Z,30.80
2017-06-22T12:23:00.176Z,31.20
2017-06-22T12:25:27.603Z,31.20
2017-06-22T12:27:54.094Z,31.10
2017-06-22T12:30:20.521Z,31.00
2017-06-22T12:32:47.000Z,30.70
2017-06-22T12:35:13.541Z,30.40
2017-06-22T12:37:39.956Z,30.50
2017-06-22T12:40:07.346Z,29.90
2017-06-22T12:42:33.848Z,29.60
2017-06-22T12:45:01.029Z,29.90
2017-06-22T12:47:27.468Z,29.90
2017-06-22T12:49:53.944Z,29.30
2017-06-22T12:52:20.353Z,30.60
2017-06-22T12:54:46.824Z,28.90
2017-06-22T12:57:14.017Z,28.50
2017-06-22T12:59:40.417Z,28.10
2017-06-22T13:02:06.867Z,27.60
2017-06-22T13:04:33.284Z,27.40
2017-06-22T13:06:59.701Z,27.40
2017-06-22T13:09:26.420Z,27.70
2017-06-22T13:11:52.832Z,27.60
2017-06-22T13:14:19.232Z,27.70
2017-06-22T13:16:45.679Z,26.70
2017-06-22T13:19:12.101Z,27.70
2017-06-22T13:21:38.505Z,26.50
2017-06-22T13:24:04.945Z,26.30
2017-06-22T13:26:32.113Z,27.10
2017-06-22T13:28:59.252Z,25.80
2017-06-22T13:31:26.566Z,25.70
2017-06-22T13:33:53.032Z,25.70
2017-06-22T13:36:19.423Z,26.30
2017-06-22T13:38:45.884Z,26.80
2017-06-22T13:41:12.285Z,26.40
2017-06-22T13:43:38.688Z,27.10
2017-06-22T13:46:05.241Z,25.80
2017-06-22T13:48:31.697Z,27.90
2017-06-22T13:50:58.153Z,25.90
2017-06-22T13:53:25.354Z,27.90
2017-06-22T13:55:51.780Z,27.80
2017-06-22T13:58:18.221Z,27.10
2017-06-22T14:00:44.693Z,28.50
2017-06-22T14:03:11.132Z,26.00
2017-06-22T14:05:37.592Z,25.90
2017-06-22T14:08:04.767Z,27.30
2017-06-22T14:10:32.173Z,27.30
2017-06-22T14:12:58.633Z,26.60
2017-06-22T14:15:25.780Z,25.90
2017-06-22T14:17:52.926Z,26.40
2017-06-22T14:20:20.108Z,27.50
2017-06-22T14:22:46.985Z,26.90
2017-06-22T14:25:13.440Z,26.10
2017-06-22T14:27:39.853Z,25.90
2017-06-22T14:30:06.260Z,27.20
2017-06-22T14:32:32.807Z,26.10
2017-06-22T14:34:59.226Z,26.50
2017-06-22T14:37:25.638Z,26.90
2017-06-22T14:39:52.085Z,26.90
2017-06-22T14:42:18.477Z,27.10
2017-06-22T14:44:44.891Z,28.10
2017-06-22T14:47:11.436Z,28.50
2017-06-22T14:49:38.022Z,28.00
2017-06-22T14:52:04.465Z,28.50
2017-06-22T14:54:30.897Z,28.90
2017-06-22T14:56:57.314Z,29.80
2017-06-22T14:59:24.041Z,29.40
2017-06-22T15:01:50.682Z,30.50
2017-06-22T15:04:17.113Z,29.90
2017-06-22T15:06:43.612Z,30.50
2017-06-22T15:09:10.494Z,32.10
2017-06-22T15:11:37.221Z,31.70
2017-06-22T15:14:03.721Z,31.90
2017-06-22T15:16:30.201Z,32.30
2017-06-22T15:18:56.603Z,31.70
2017-06-22T15:21:23.056Z,30.20
2017-06-22T15:23:49.516Z,30.90
2017-06-22T15:26:15.984Z,30.80
2017-06-22T15:28:42.396Z,33.30
2017-06-22T15:31:08.833Z,31.90
2017-06-22T15:33:35.260Z,32.60
2017-06-22T15:36:01.718Z,33.30
2017-06-22T15:38:28.120Z,32.20
2017-06-22T15:40:54.572Z,32.40
2017-06-22T15:43:20.992Z,32.80
2017-06-22T15:45:47.408Z,33.00
2017-06-22T15:48:13.928Z,33.60
2017-06-22T15:50:41.078Z,34.70
2017-06-22T15:53:08.267Z,33.20
2017-06-22T15:55:34.700Z,33.10
2017-06-22T15:58:01.161Z,33.50
2017-06-22T16:00:27.569Z,35.10
2017-06-22T16:02:54.016Z,35.00
2017-06-22T16:05:20.432Z,33.50
2017-06-22T16:07:46.899Z,34.50
2017-06-22T16:10:13.586Z,34.40
2017-06-22T16:12:40.085Z,33.70
2017-06-22T16:15:07.393Z,34.10
2017-06-22T16:17:33.836Z,33.80
2017-06-22T16:20:00.253Z,34.90
2017-06-22T16:22:26.734Z,34.30
2017-06-22T16:24:53.924Z,33.80
2017-06-22T16:27:20.376Z,33.70
2017-06-22T16:29:46.828Z,34.50
2017-06-22T16:32:13.221Z,34.90
2017-06-22T16:34:39.618Z,33.80
2017-06-22T16:37:06.882Z,37.20
2017-06-22T16:39:33.295Z,37.50
2017-06-22T16:41:59.709Z,38.40
2017-06-22T16:44:26.135Z,39.20
2017-06-22T16:46:52.561Z,40.50
2017-06-22T16:49:18.961Z,41.60
2017-06-22T16:51:45.405Z,42.00
2017-06-22T16:54:11.843Z,42.60
2017-06-22T16:56:38.305Z,43.90
2017-06-22T16:59:04.741Z,44.10
2017-06-22T17:01:31.138Z,43.90
2017-06-22T17:03:57.533Z,44.20
2017-06-22T17:06:24.176Z,44.50
2017-06-22T17:08:50.573Z,45.50
2017-06-22T17:11:16.969Z,45.20
2017-06-22T17:13:43.493Z,44.60
2017-06-22T17:16:09.965Z,45.80
2017-06-22T17:18:37.017Z,46.50
2017-06-22T17:21:03.452Z,46.30
2017-06-22T17:23:29.880Z,46.30
2017-06-22T17:25:56.283Z,46.40
2017-06-22T17:28:22.718Z,47.60
2017-06-22T17:30:49.109Z,47.50
2017-06-22T17:33:15.641Z,48.10
2017-06-22T17:35:42.045Z,47.60
2017-06-22T17:38:08.472Z,47.90
2017-06-22T17:40:34.905Z,48.20
2017-06-22T17:43:01.304Z,48.40
2017-06-22T17:45:27.726Z,49.10
2017-06-22T17:47:54.974Z,49.30
2017-06-22T17:50:22.133Z,49.30
2017-06-22T17:52:49.285Z,49.20
2017-06-22T17:55:15.864Z,49.20
2017-06-22T17:57:42.313Z,49.10
2017-06-22T18:00:08.720Z,49.50
2017-06-22T18:02:35.173Z,50.00
2017-06-22T18:05:01.902Z,49.90
2017-06-22T18:07:29.154Z,50.70
2017-06-22T18:09:55.595Z,50.70
2017-06-22T18:12:22.006Z,51.10
2017-06-22T18:14:49.750Z,51.20
2017-06-22T18:17:16.365Z,50.80
2017-06-22T18:19:43.500Z,52.10
2017-06-22T18:22:09.900Z,51.50
2017-06-22T18:24:36.332Z,51.20
2017-06-22T18:27:02.781Z,51.40
2017-06-22T18:29:36.288Z,51.90
2017-06-22T18:32:02.700Z,51.80
2017-06-22T18:34:29.111Z,52.30
2017-06-22T18:36:55.614Z,52.30
2017-06-22T18:39:22.761Z,52.80
2017-06-22T18:41:49.181Z,52.80
2017-06-22T18:44:15.717Z,52.90
2017-06-22T18:46:42.241Z,53.20
2017-06-22T18:49:08.644Z,53.10
2017-06-22T18:51:35.068Z,53.10
2017-06-22T18:54:01.500Z,53.50
2017-06-22T18:56:28.026Z,53.60
2017-06-22T18:58:54.421Z,52.80
2017-06-22T19:01:20.833Z,52.60
2017-06-22T19:03:47.276Z,52.50
2017-06-22T19:06:13.781Z,52.90
2017-06-22T19:08:40.189Z,53.40
2017-06-22T19:11:06.641Z,53.70
2017-06-22T19:13:33.053Z,53.70
2017-06-22T19:15:59.466Z,54.30
2017-06-22T19:18:25.930Z,53.90
2017-06-22T19:20:52.329Z,54.20
2017-06-22T19:23:19.495Z,54.90
2017-06-22T19:25:52.926Z,54.90
2017-06-22T19:28:19.372Z,55.50
2017-06-22T19:30:45.785Z,55.20
2017-06-22T19:33:12.356Z,55.50
2017-06-22T19:35:38.797Z,55.50
2017-06-22T19:38:05.323Z,55.60
2017-06-22T19:40:31.857Z,55.40
2017-06-22T19:42:58.257Z,56.50
2017-06-22T19:45:24.673Z,56.70
2017-06-22T19:47:51.181Z,56.80
2017-06-22T19:50:17.604Z,57.20
2017-06-22T19:52:44.756Z,57.40
2017-06-22T19:55:12.413Z,57.10
2017-06-22T19:57:38.921Z,57.00
2017-06-22T20:00:05.372Z,57.40
2017-06-22T20:02:31.828Z,57.40
2017-06-22T20:04:58.251Z,57.60
2017-06-22T20:07:25.453Z,59.20
2017-06-22T20:09:51.900Z,58.70
2017-06-22T20:12:18.312Z,58.80
2017-06-22T20:14:44.712Z,59.00
2017-06-22T20:17:12.228Z,59.10
2017-06-22T20:19:38.930Z,59.00
2017-06-22T20:22:05.362Z,58.80
2017-06-22T20:24:32.175Z,59.40
2017-06-22T20:29:48.170Z,59.10
2017-06-22T20:32:14.868Z,59.70
2017-06-22T20:34:41.396Z,59.90
2017-06-22T20:37:08.012Z,60.40
2017-06-22T20:39:35.885Z,60.90
2017-06-22T20:42:02.352Z,61.50
2017-06-22T20:44:28.795Z,61.50
2017-06-22T20:46:55.228Z,61.80
2017-06-22T20:49:21.925Z,62.00
2017-06-22T20:51:48.384Z,62.30
2017-06-22T20:54:14.813Z,61.60
2017-06-22T20:56:41.330Z,61.50
2017-06-22T20:59:07.746Z,62.10
2017-06-22T21:01:34.900Z,63.00
2017-06-22T21:04:02.176Z,63.70
2017-06-22T21:06:28.985Z,63.70
2017-06-22T21:08:55.423Z,63.70
2017-06-22T21:11:22.605Z,63.60
2017-06-22T21:13:49.218Z,63.60
2017-06-22T21:16:16.523Z,63.50
2017-06-22T21:18:42.972Z,63.50
2017-06-22T21:21:09.396Z,64.70
2017-06-22T21:23:35.821Z,64.30
2017-06-22T21:26:02.249Z,64.40
2017-06-22T21:28:28.704Z,64.50
2017-06-22T21:30:55.145Z,64.00
2017-06-22T21:33:21.565Z,64.70
2017-06-22T21:35:47.961Z,65.00
2017-06-22T21:38:14.445Z,65.30
2017-06-22T21:40:40.836Z,65.50
2017-06-22T21:43:07.254Z,65.60
2017-06-22T21:45:33.732Z,65.60
2017-06-22T21:48:00.148Z,65.70
2017-06-22T21:50:26.557Z,66.00
2017-06-22T21:52:53.057Z,66.50
2017-06-22T21:55:20.213Z,67.10
2017-06-22T21:57:47.457Z,67.20
2017-06-22T22:00:14.616Z,67.20
2017-06-22T22:02:41.025Z,67.10
2017-06-22T22:05:07.449Z,67.30
2017-06-22T22:07:33.889Z,68.10
2017-06-22T22:10:00.296Z,68.30
2017-06-22T22:12:26.925Z,67.80
2017-06-22T22:14:53.323Z,67.60
2017-06-22T22:17:19.804Z,67.80
2017-06-22T22:19:46.248Z,68.10
2017-06-22T22:22:12.653Z,68.60
2017-06-22T22:24:39.065Z,68.60
2017-06-22T22:27:05.581Z,69.00
2017-06-22T22:29:32.724Z,69.50
2017-06-22T22:31:59.858Z,69.30
2017-06-22T22:34:26.300Z,69.20
2017-06-22T22:36:53.517Z,69.30
2017-06-22T22:39:20.080Z,69.20
2017-06-22T22:41:46.493Z,69.50
2017-06-22T22:44:12.926Z,70.10
2017-06-22T22:46:39.396Z,69.70
2017-06-22T22:49:06.551Z,69.50
2017-06-22T22:51:33.051Z,69.30
2017-06-22T22:53:59.496Z,69.80
2017-06-22T22:56:26.019Z,70.10
2017-06-22T22:58:52.456Z,70.50
2017-06-22T23:01:18.991Z,70.60
2017-06-22T23:03:45.387Z,70.80
2017-06-22T23:06:11.843Z,71.00
2017-06-22T23:08:38.308Z,71.00
2017-06-22T23:11:05.448Z,71.40
2017-06-22T23:13:31.852Z,71.40
2017-06-22T23:15:58.300Z,71.30
2017-06-22T23:18:24.774Z,71.30
2017-06-22T23:20:51.928Z,71.60
2017-06-22T23:23:18.332Z,71.40
2017-06-22T23:25:45.536Z,72.60
2017-06-22T23:28:12.001Z,71.70
2017-06-22T23:30:38.408Z,71.70
2017-06-22T23:33:04.868Z,72.30
2017-06-22T23:35:31.321Z,72.30
2017-06-22T23:37:58.537Z,72.20
2017-06-22T23:40:24.977Z,72.20
2017-06-22T23:42:51.368Z,72.40
2017-06-22T23:45:17.777Z,72.60
2017-06-22T23:47:44.373Z,73.00
2017-06-22T23:50:10.773Z,73.60
2017-06-22T23:52:37.164Z,73.50
2017-06-22T23:55:03.612Z,73.60
2017-06-22T23:57:30.816Z,73.30
2017-06-22T23:59:57.274Z,73.30
